createdAt,value
2022-09-12T00:01:25.693Z,78.93
2022-09-12T00:03:55.148Z,79.38
2022-09-12T00:06:25.420Z,79.08
2022-09-12T00:08:56.464Z,79.02
2022-09-12T00:11:25.710Z,79.49
2022-09-12T00:13:57.802Z,79.02
2022-09-12T00:16:28.777Z,79.30
2022-09-12T00:18:57.062Z,79.34
2022-09-12T00:21:25.325Z,79.32
2022-09-12T00:23:53.634Z,79.63
2022-09-12T00:26:23.745Z,79.36
2022-09-12T00:28:52.270Z,79.26
2022-09-12T00:31:23.336Z,79.66
2022-09-12T00:33:53.965Z,80.01
2022-09-12T00:36:25.594Z,79.80
2022-09-12T00:38:55.277Z,79.53
2022-09-12T00:41:25.730Z,79.88
2022-09-12T00:43:55.391Z,79.55
2022-09-12T00:46:29.605Z,79.98
2022-09-12T00:48:58.686Z,80.23
2022-09-12T00:51:27.681Z,80.49
2022-09-12T00:53:58.846Z,80.81
2022-09-12T00:56:27.716Z,80.43
2022-09-12T00:58:59.645Z,81.04
2022-09-12T01:01:32.219Z,81.11
2022-09-12T01:04:01.761Z,81.27
2022-09-12T01:06:35.030Z,81.04
2022-09-12T01:09:04.594Z,81.35
2022-09-12T01:11:32.954Z,81.13
2022-09-12T01:14:01.136Z,81.71
2022-09-12T01:16:29.653Z,81.45
2022-09-12T01:19:12.672Z,81.03
2022-09-12T01:21:47.989Z,81.37
2022-09-12T01:24:45.354Z,81.81
2022-09-12T01:27:20.570Z,81.30
2022-09-12T01:30:04.737Z,81.94
2022-09-12T01:32:45.675Z,82.00
2022-09-12T01:35:22.577Z,81.99
2022-09-12T01:37:59.208Z,81.99
2022-09-12T01:40:31.299Z,81.77
2022-09-12T01:43:06.473Z,82.07
2022-09-12T01:45:38.941Z,82.10
2022-09-12T01:48:13.042Z,82.03
2022-09-12T01:50:46.121Z,82.18
2022-09-12T01:53:18.606Z,81.72
2022-09-12T01:55:50.760Z,82.08
2022-09-12T01:58:22.447Z,82.12
2022-09-12T02:01:00.778Z,82.01
2022-09-12T02:03:32.524Z,82.17
2022-09-12T02:06:03.617Z,82.18
2022-09-12T02:08:35.788Z,82.45
2022-09-12T02:11:08.432Z,82.05
2022-09-12T02:13:40.945Z,82.20
2022-09-12T02:16:11.520Z,82.50
2022-09-12T02:18:42.582Z,82.49
2022-09-12T02:21:11.100Z,82.42
2022-09-12T02:23:43.469Z,82.79
2022-09-12T02:26:17.202Z,82.86
2022-09-12T02:28:48.928Z,82.44
2022-09-12T02:31:25.891Z,83.00
2022-09-12T02:34:04.029Z,82.92
2022-09-12T02:36:37.786Z,83.03
2022-09-12T02:39:06.470Z,82.87
2022-09-12T02:41:34.794Z,83.19
2022-09-12T02:44:03.692Z,83.47
2022-09-12T02:46:35.718Z,82.68
2022-09-12T02:49:04.326Z,83.07
2022-09-12T02:51:32.764Z,83.01
2022-09-12T02:54:01.716Z,82.88
2022-09-12T02:56:31.005Z,83.29
2022-09-12T02:59:02.202Z,83.00
2022-09-12T03:01:39.218Z,82.52
2022-09-12T03:04:26.299Z,82.84
2022-09-12T03:07:04.976Z,83.09
2022-09-12T03:09:39.660Z,83.06
2022-09-12T03:12:18.470Z,82.89
2022-09-12T03:15:02.439Z,82.64
2022-09-12T03:17:40.314Z,82.83
2022-09-12T03:20:11.786Z,82.86
2022-09-12T03:22:51.241Z,82.88
2022-09-12T03:25:22.963Z,82.71
2022-09-12T03:27:56.663Z,82.60
2022-09-12T03:30:25.500Z,82.65
2022-09-12T03:32:54.895Z,82.73
2022-09-12T03:35:24.750Z,82.47
2022-09-12T03:37:53.437Z,82.36
2022-09-12T03:40:21.863Z,82.60
2022-09-12T03:42:50.211Z,83.02
2022-09-12T03:45:18.800Z,83.05
2022-09-12T03:47:47.114Z,83.19
2022-09-12T03:50:15.516Z,83.89
2022-09-12T03:52:43.934Z,83.36
2022-09-12T03:55:12.214Z,83.67
2022-09-12T03:57:40.676Z,84.57
2022-09-12T04:00:11.029Z,84.55
2022-09-12T04:02:39.299Z,84.73
2022-09-12T04:05:08.535Z,84.39
2022-09-12T04:07:37.092Z,84.39
2022-09-12T04:10:06.986Z,84.51
2022-09-12T04:12:35.485Z,85.17
2022-09-12T04:15:04.615Z,85.33
2022-09-12T04:17:32.837Z,85.69
2022-09-12T04:20:01.771Z,85.98
2022-09-12T04:22:31.383Z,85.50
2022-09-12T04:24:59.619Z,86.77
2022-09-12T04:27:28.093Z,86.64
2022-09-12T04:29:56.633Z,87.03
2022-09-12T04:32:25.371Z,87.15
2022-09-12T04:34:53.799Z,87.02
2022-09-12T04:37:23.058Z,86.54
2022-09-12T04:39:55.590Z,86.34
2022-09-12T04:42:25.993Z,86.75
2022-09-12T04:44:54.469Z,86.49
2022-09-12T04:47:23.048Z,87.40
2022-09-12T04:49:51.841Z,87.92
2022-09-12T04:52:20.302Z,87.89
2022-09-12T04:54:48.755Z,87.91
2022-09-12T04:57:17.123Z,87.66
2022-09-12T04:59:45.494Z,87.55
2022-09-12T05:02:14.027Z,87.37
2022-09-12T05:04:42.319Z,87.07
2022-09-12T05:07:11.096Z,88.48
2022-09-12T05:09:39.453Z,88.86
2022-09-12T05:12:08.859Z,89.18
2022-09-12T05:14:37.320Z,88.26
2022-09-12T05:17:06.338Z,88.26
2022-09-12T05:19:34.930Z,88.65
2022-09-12T05:22:04.618Z,88.77
2022-09-12T05:24:33.522Z,88.48
2022-09-12T05:27:02.941Z,88.51
2022-09-12T05:29:31.738Z,88.48
2022-09-12T05:32:00.004Z,88.95
2022-09-12T05:34:28.185Z,88.63
2022-09-12T05:36:56.355Z,88.75
2022-09-12T05:39:25.143Z,89.76
2022-09-12T05:41:53.666Z,90.30
2022-09-12T05:44:21.943Z,90.01
2022-09-12T05:46:53.095Z,89.51
2022-09-12T05:49:21.550Z,90.09
2022-09-12T05:51:51.030Z,90.48
2022-09-12T05:54:20.648Z,89.98
2022-09-12T05:56:49.255Z,89.82
2022-09-12T05:59:19.076Z,90.10
2022-09-12T06:01:48.389Z,90.11
2022-09-12T06:04:17.275Z,90.30
2022-09-12T06:06:46.277Z,91.12
2022-09-12T06:09:15.738Z,90.98
2022-09-12T06:11:45.080Z,90.58
2022-09-12T06:14:15.578Z,90.29
2022-09-12T06:16:44.022Z,91.29
2022-09-12T06:19:15.711Z,90.82
2022-09-12T06:21:44.897Z,90.96
2022-09-12T06:24:13.533Z,91.99
2022-09-12T06:26:43.155Z,91.48
2022-09-12T06:29:12.788Z,91.50
2022-09-12T06:31:44.089Z,91.65
2022-09-12T06:34:13.949Z,91.20
2022-09-12T06:36:43.722Z,91.31
2022-09-12T06:39:13.745Z,91.08
2022-09-12T06:41:44.283Z,91.28
2022-09-12T06:44:15.399Z,90.78
2022-09-12T06:46:44.154Z,90.96
2022-09-12T06:49:12.506Z,90.63
2022-09-12T06:51:42.173Z,90.67
2022-09-12T06:54:13.543Z,90.35
2022-09-12T06:56:42.346Z,90.04
2022-09-12T06:59:10.667Z,90.42
2022-09-12T07:01:40.742Z,90.64
2022-09-12T07:04:09.697Z,90.52
2022-09-12T07:06:39.290Z,90.72
2022-09-12T07:09:09.967Z,90.66
2022-09-12T07:11:39.856Z,90.04
2022-09-12T07:14:12.566Z,90.45
2022-09-12T07:16:41.211Z,89.84
2022-09-12T07:19:10.754Z,89.80
2022-09-12T07:21:41.141Z,90.17
2022-09-12T07:24:10.867Z,90.36
2022-09-12T07:26:41.352Z,88.94
2022-09-12T07:32:03.646Z,89.04
2022-09-12T07:34:32.630Z,88.96
2022-09-12T07:37:00.920Z,88.95
2022-09-12T07:39:29.300Z,89.24
2022-09-12T07:41:58.350Z,89.32
2022-09-12T07:44:27.109Z,89.41
2022-09-12T07:46:55.360Z,89.31
2022-09-12T07:49:23.836Z,89.51
2022-09-12T07:51:52.846Z,89.12
2022-09-12T07:54:21.934Z,89.02
2022-09-12T07:56:51.217Z,89.38
2022-09-12T07:59:35.682Z,89.37
2022-09-12T08:02:16.759Z,89.63
2022-09-12T08:04:47.513Z,89.44
2022-09-12T08:07:18.712Z,89.16
2022-09-12T08:09:47.636Z,89.40
2022-09-12T08:12:17.136Z,89.40
2022-09-12T08:14:45.490Z,89.29
2022-09-12T08:17:14.118Z,89.22
2022-09-12T08:19:43.069Z,89.69
2022-09-12T08:22:11.507Z,89.45
2022-09-12T08:24:39.865Z,89.17
2022-09-12T08:27:10.386Z,88.34
2022-09-12T08:29:38.781Z,88.27
2022-09-12T08:32:07.289Z,88.54
2022-09-12T08:34:35.803Z,88.06
2022-09-12T08:37:04.208Z,87.87
2022-09-12T08:39:32.697Z,87.65
2022-09-12T08:42:02.749Z,87.31
2022-09-12T08:44:48.869Z,86.96
2022-09-12T08:47:22.631Z,86.64
2022-09-12T08:49:57.452Z,86.59
2022-09-12T08:52:31.102Z,85.98
2022-09-12T08:54:59.350Z,86.29
2022-09-12T08:57:30.824Z,86.13
2022-09-12T08:59:59.809Z,85.92
2022-09-12T09:02:59.509Z,85.75
2022-09-12T09:05:37.905Z,85.76
2022-09-12T09:08:21.439Z,85.79
2022-09-12T09:10:52.521Z,85.42
2022-09-12T09:13:51.520Z,85.52
2022-09-12T09:16:25.969Z,85.75
2022-09-12T09:18:55.598Z,85.42
2022-09-12T09:21:27.471Z,85.00
2022-09-12T09:23:59.870Z,85.00
2022-09-12T09:26:32.136Z,84.45
2022-09-12T09:29:04.239Z,84.21
2022-09-12T09:31:35.863Z,84.17
2022-09-12T09:34:13.661Z,84.30
2022-09-12T09:36:47.841Z,84.33
2022-09-12T09:39:23.042Z,84.60
2022-09-12T09:41:59.220Z,83.95
2022-09-12T09:44:29.048Z,83.49
2022-09-12T09:46:59.626Z,82.93
2022-09-12T09:49:31.329Z,81.77
2022-09-12T09:52:01.638Z,81.97
2022-09-12T09:54:35.447Z,82.27
2022-09-12T09:57:04.705Z,82.47
2022-09-12T09:59:34.093Z,82.20
2022-09-12T10:02:21.928Z,82.53
2022-09-12T10:04:55.676Z,82.55
2022-09-12T10:07:25.055Z,82.05
2022-09-12T10:10:07.078Z,81.70
2022-09-12T10:12:36.345Z,80.86
2022-09-12T10:15:18.028Z,80.53
2022-09-12T10:17:48.858Z,81.15
2022-09-12T10:20:34.666Z,81.57
2022-09-12T10:23:22.999Z,81.13
2022-09-12T10:25:55.125Z,80.75
2022-09-12T10:28:34.875Z,80.84
2022-09-12T10:31:03.351Z,80.82
2022-09-12T10:33:35.391Z,80.26
2022-09-12T10:36:03.896Z,80.35
2022-09-12T10:38:33.907Z,80.63
2022-09-12T10:41:04.268Z,80.35
2022-09-12T10:43:37.158Z,80.14
2022-09-12T10:46:32.562Z,79.89
2022-09-12T10:49:23.636Z,80.03
2022-09-12T10:51:53.806Z,80.48
2022-09-12T10:54:24.202Z,80.45
2022-09-12T10:57:18.232Z,80.40
2022-09-12T11:00:05.312Z,80.16
2022-09-12T11:02:43.624Z,80.19
2022-09-12T11:05:18.381Z,80.13
2022-09-12T11:07:51.959Z,80.27
2022-09-12T11:10:36.323Z,80.29
2022-09-12T11:13:19.654Z,80.41
2022-09-12T11:16:03.088Z,80.27
2022-09-12T11:18:43.486Z,80.42
2022-09-12T11:21:30.714Z,80.53
2022-09-12T11:24:13.365Z,80.72
2022-09-12T11:26:55.731Z,80.84
2022-09-12T11:29:34.308Z,81.21
2022-09-12T11:32:19.059Z,81.10
2022-09-12T11:34:55.348Z,81.11
2022-09-12T11:37:36.693Z,81.20
2022-09-12T11:40:12.584Z,80.79
2022-09-12T11:42:46.467Z,80.84
2022-09-12T11:45:19.414Z,81.06
2022-09-12T11:47:51.832Z,81.11
2022-09-12T11:50:23.278Z,81.17
2022-09-12T11:52:51.925Z,81.13
2022-09-12T11:55:23.996Z,80.78
2022-09-12T11:57:55.280Z,80.76
2022-09-12T12:00:27.028Z,80.51
2022-09-12T12:03:03.336Z,80.57
2022-09-12T12:05:37.552Z,80.57
2022-09-12T12:08:07.412Z,80.20
2022-09-12T12:10:38.186Z,80.20
2022-09-12T12:13:15.103Z,79.96
2022-09-12T12:15:46.679Z,79.94
2022-09-12T12:18:19.321Z,80.23
2022-09-12T12:20:48.049Z,80.02
2022-09-12T12:23:32.088Z,80.11
2022-09-12T12:26:01.248Z,79.92
2022-09-12T12:28:58.687Z,80.05
2022-09-12T12:31:27.230Z,79.83
2022-09-12T12:34:33.120Z,79.96
2022-09-12T12:37:48.640Z,78.92
2022-09-12T12:40:25.078Z,78.63
2022-09-12T12:43:25.744Z,77.96
2022-09-12T12:46:04.593Z,78.25
2022-09-12T12:48:53.766Z,77.61
2022-09-12T12:51:29.893Z,77.01
2022-09-12T12:53:58.514Z,77.09
2022-09-12T12:56:33.192Z,77.11
2022-09-12T12:59:04.144Z,76.91
2022-09-12T13:01:40.607Z,76.71
2022-09-12T13:04:16.193Z,76.84
2022-09-12T13:06:46.312Z,77.05
2022-09-12T13:09:24.050Z,77.23
2022-09-12T13:12:03.985Z,76.95
2022-09-12T13:14:50.933Z,76.68
2022-09-12T13:17:25.705Z,77.20
2022-09-12T13:20:26.570Z,77.35
2022-09-12T13:22:53.799Z,77.05
2022-09-12T13:25:28.684Z,76.82
2022-09-12T13:28:03.635Z,76.78
2022-09-12T13:30:33.880Z,76.45
2022-09-12T13:33:11.598Z,76.54
2022-09-12T13:35:58.826Z,76.19
2022-09-12T13:38:34.317Z,76.10
2022-09-12T13:41:17.319Z,76.60
2022-09-12T13:43:47.101Z,76.77
2022-09-12T13:46:21.150Z,76.03
2022-09-12T13:48:50.963Z,76.38
2022-09-12T13:51:25.845Z,76.44
2022-09-12T13:53:57.659Z,76.52
2022-09-12T13:56:26.401Z,76.61
2022-09-12T13:58:56.356Z,76.52
2022-09-12T14:01:36.015Z,76.69
2022-09-12T14:04:34.015Z,74.67
2022-09-12T14:07:09.517Z,74.50
2022-09-12T14:09:40.492Z,74.08
2022-09-12T14:12:21.623Z,74.32
2022-09-12T14:14:51.571Z,73.97
2022-09-12T14:17:25.524Z,74.16
2022-09-12T14:19:54.367Z,73.87
2022-09-12T14:22:23.536Z,74.27
2022-09-12T14:24:51.865Z,74.41
2022-09-12T14:27:24.058Z,74.97
2022-09-12T14:29:57.431Z,74.56
2022-09-12T14:32:25.983Z,74.82
2022-09-12T14:35:18.658Z,75.04
2022-09-12T14:37:49.850Z,75.04
2022-09-12T14:40:20.630Z,75.00
2022-09-12T14:42:51.253Z,75.02
2022-09-12T14:45:29.983Z,74.80
2022-09-12T14:47:59.067Z,75.05
2022-09-12T14:50:29.254Z,74.96
2022-09-12T14:53:05.898Z,74.91
2022-09-12T14:55:43.562Z,74.60
2022-09-12T14:58:22.380Z,74.74
2022-09-12T15:00:59.938Z,74.91
2022-09-12T15:03:30.819Z,74.71
2022-09-12T15:05:59.712Z,74.75
2022-09-12T15:08:28.411Z,74.68
2022-09-12T15:10:59.684Z,74.84
2022-09-12T15:13:31.689Z,74.80
2022-09-12T15:16:00.919Z,74.94
2022-09-12T15:18:30.145Z,74.74
2022-09-12T15:21:02.922Z,74.79
2022-09-12T15:23:37.574Z,74.80
2022-09-12T15:26:07.160Z,74.81
2022-09-12T15:28:36.226Z,74.79
2022-09-12T15:31:10.300Z,74.82
2022-09-12T15:33:38.709Z,75.00
2022-09-12T15:36:16.349Z,74.77
2022-09-12T15:38:46.101Z,74.87
2022-09-12T15:41:16.888Z,75.02
2022-09-12T15:43:45.411Z,74.87
2022-09-12T15:46:16.383Z,74.89
2022-09-12T15:48:45.702Z,75.03
2022-09-12T15:51:15.901Z,75.28
2022-09-12T15:53:45.126Z,75.12
2022-09-12T15:56:15.971Z,75.13
2022-09-12T15:58:57.563Z,75.15
2022-09-12T16:01:28.567Z,75.29
2022-09-12T16:03:57.189Z,75.34
2022-09-12T16:06:34.989Z,75.42
2022-09-12T16:09:05.869Z,75.50
2022-09-12T16:11:34.734Z,75.46
2022-09-12T16:14:03.279Z,75.42
2022-09-12T16:16:31.725Z,75.52
2022-09-12T16:19:00.473Z,75.26
2022-09-12T16:21:28.823Z,75.35
2022-09-12T16:23:57.351Z,75.16
2022-09-12T16:26:25.943Z,75.32
2022-09-12T16:28:59.348Z,75.46
2022-09-12T16:31:28.422Z,75.48
2022-09-12T16:33:56.789Z,75.51
2022-09-12T16:36:25.440Z,75.47
2022-09-12T16:38:54.990Z,75.49
2022-09-12T16:41:24.846Z,75.53
2022-09-12T16:43:53.434Z,75.46
2022-09-12T16:46:23.621Z,75.55
2022-09-12T16:48:54.401Z,75.62
2022-09-12T16:51:26.208Z,75.80
2022-09-12T16:53:55.294Z,75.69
2022-09-12T16:56:24.805Z,75.84
2022-09-12T16:58:53.437Z,75.85
2022-09-12T17:01:23.413Z,75.73
2022-09-12T17:03:54.439Z,75.86
2022-09-12T17:06:24.591Z,75.80
2022-09-12T17:08:55.281Z,75.90
2022-09-12T17:11:26.461Z,75.81
2022-09-12T17:14:05.031Z,75.96
2022-09-12T17:16:38.484Z,76.02
2022-09-12T17:19:07.574Z,75.88
2022-09-12T17:21:36.519Z,75.93
2022-09-12T17:24:05.755Z,75.88
2022-09-12T17:26:36.805Z,75.79
2022-09-12T17:29:05.833Z,75.91
2022-09-12T17:31:37.472Z,75.94
2022-09-12T17:34:05.778Z,75.99
2022-09-12T17:36:35.166Z,75.96
2022-09-12T17:39:04.380Z,75.94
2022-09-12T17:41:33.325Z,76.12
2022-09-12T17:44:04.839Z,76.17
2022-09-12T17:46:35.429Z,76.11
2022-09-12T17:49:08.233Z,76.11
2022-09-12T17:51:36.943Z,76.23
2022-09-12T17:54:07.788Z,76.15
2022-09-12T17:56:36.663Z,76.20
2022-09-12T17:59:06.376Z,76.36
2022-09-12T18:01:53.557Z,76.43
2022-09-12T18:04:22.322Z,76.39
2022-09-12T18:06:50.608Z,76.47
2022-09-12T18:09:20.482Z,76.64
2022-09-12T18:11:49.897Z,76.63
2022-09-12T18:14:19.362Z,76.59
2022-09-12T18:16:49.049Z,76.77
2022-09-12T18:19:19.567Z,76.78
2022-09-12T18:21:48.039Z,76.85
2022-09-12T18:24:16.769Z,77.01
2022-09-12T18:26:45.573Z,77.14
2022-09-12T18:29:17.142Z,77.24
2022-09-12T18:31:46.733Z,77.35
2022-09-12T18:34:16.324Z,77.43
2022-09-12T18:36:46.411Z,77.45
2022-09-12T18:39:15.909Z,77.54
2022-09-12T18:41:44.366Z,77.62
2022-09-12T18:44:21.677Z,77.66
2022-09-12T18:46:50.966Z,77.79
2022-09-12T18:49:19.421Z,77.85
2022-09-12T18:51:48.148Z,77.85
2022-09-12T18:54:18.027Z,77.93
2022-09-12T18:56:47.318Z,77.99
2022-09-12T18:59:16.668Z,78.25
2022-09-12T19:01:46.911Z,78.17
2022-09-12T19:04:16.413Z,78.20
2022-09-12T19:06:46.838Z,78.18
2022-09-12T19:09:20.338Z,78.17
2022-09-12T19:11:49.068Z,78.31
2022-09-12T19:14:19.397Z,78.44
2022-09-12T19:16:48.410Z,78.25
2022-09-12T19:19:17.689Z,78.34
2022-09-12T19:21:46.698Z,78.34
2022-09-12T19:24:16.302Z,78.39
2022-09-12T19:26:45.865Z,78.48
2022-09-12T19:29:16.280Z,78.54
2022-09-12T19:31:45.168Z,78.50
2022-09-12T19:34:14.885Z,78.55
2022-09-12T19:36:45.764Z,78.65
2022-09-12T19:39:16.217Z,78.64
2022-09-12T19:41:44.927Z,78.72
2022-09-12T19:44:13.426Z,78.79
2022-09-12T19:46:42.593Z,78.88
2022-09-12T19:49:12.338Z,78.92
2022-09-12T19:51:41.034Z,79.02
2022-09-12T19:54:10.312Z,79.04
2022-09-12T19:56:38.592Z,79.23
2022-09-12T19:59:07.955Z,79.20
2022-09-12T20:01:37.254Z,79.33
2022-09-12T20:04:06.310Z,79.41
2022-09-12T20:06:34.798Z,79.61
2022-09-12T20:09:04.305Z,79.68
2022-09-12T20:11:33.573Z,79.66
2022-09-12T20:14:02.235Z,79.77
2022-09-12T20:16:32.738Z,79.75
2022-09-12T20:19:03.822Z,79.82
2022-09-12T20:21:35.311Z,79.90
2022-09-12T20:24:05.425Z,79.79
2022-09-12T20:26:34.323Z,79.95
2022-09-12T20:29:03.076Z,80.12
2022-09-12T20:31:31.625Z,80.26
2022-09-12T20:34:00.458Z,80.26
2022-09-12T20:36:28.816Z,80.48
2022-09-12T20:38:59.480Z,80.75
2022-09-12T20:41:30.090Z,80.80
2022-09-12T20:43:58.692Z,80.69
2022-09-12T20:46:28.462Z,80.64
2022-09-12T20:48:58.355Z,80.85
2022-09-12T20:51:29.039Z,81.09
2022-09-12T20:53:58.423Z,81.09
2022-09-12T20:56:28.200Z,81.27
2022-09-12T20:58:57.890Z,81.69
2022-09-12T21:01:30.000Z,81.26
2022-09-12T21:04:00.580Z,81.45
2022-09-12T21:06:31.671Z,81.63
2022-09-12T21:09:00.312Z,81.51
2022-09-12T21:11:31.383Z,81.67
2022-09-12T21:14:00.125Z,81.84
2022-09-12T21:16:28.615Z,81.79
2022-09-12T21:18:58.134Z,81.84
2022-09-12T21:21:27.421Z,81.75
2022-09-12T21:23:59.083Z,82.02
2022-09-12T21:26:27.839Z,82.02
2022-09-12T21:28:56.892Z,81.99
2022-09-12T21:31:25.709Z,82.16
2022-09-12T21:33:54.115Z,82.23
2022-09-12T21:36:22.635Z,82.15
2022-09-12T21:38:51.176Z,82.41
2022-09-12T21:41:22.828Z,82.31
2022-09-12T21:43:56.534Z,82.48
2022-09-12T21:46:28.705Z,82.68
2022-09-12T21:48:58.213Z,82.62
2022-09-12T21:51:29.294Z,82.47
2022-09-12T21:53:58.175Z,82.43
2022-09-12T21:56:26.880Z,82.86
2022-09-12T21:58:55.859Z,83.03
2022-09-12T22:01:25.743Z,83.17
2022-09-12T22:03:54.143Z,83.01
2022-09-12T22:06:22.776Z,83.10
2022-09-12T22:08:51.093Z,83.14
2022-09-12T22:11:19.800Z,83.60
2022-09-12T22:13:48.303Z,83.63
2022-09-12T22:16:17.183Z,83.64
2022-09-12T22:18:46.827Z,83.85
2022-09-12T22:21:16.654Z,83.71
2022-09-12T22:24:11.893Z,83.98
2022-09-12T22:26:44.641Z,83.94
2022-09-12T22:29:14.126Z,84.13
2022-09-12T22:31:42.444Z,84.01
2022-09-12T22:34:10.949Z,84.12
2022-09-12T22:36:39.371Z,84.24
2022-09-12T22:39:08.057Z,84.16
2022-09-12T22:41:37.761Z,84.40
2022-09-12T22:44:06.346Z,84.64
2022-09-12T22:46:35.711Z,84.30
2022-09-12T22:49:04.427Z,84.37
2022-09-12T22:51:33.235Z,84.41
2022-09-12T22:54:05.480Z,84.43
2022-09-12T22:56:34.420Z,84.31
2022-09-12T22:59:03.047Z,84.37
2022-09-12T23:01:32.728Z,84.46
2022-09-12T23:04:01.319Z,84.47
2022-09-12T23:06:30.460Z,84.37
2022-09-12T23:08:59.273Z,84.53
2022-09-12T23:11:29.357Z,84.66
2022-09-12T23:13:57.525Z,84.28
2022-09-12T23:16:30.869Z,84.29
2022-09-12T23:18:59.747Z,84.45
2022-09-12T23:21:29.373Z,84.65
2022-09-12T23:23:57.975Z,84.52
2022-09-12T23:26:29.040Z,84.62
2022-09-12T23:28:59.468Z,84.40
2022-09-12T23:31:30.044Z,84.24
2022-09-12T23:34:02.070Z,84.68
2022-09-12T23:36:31.715Z,84.65
2022-09-12T23:39:01.854Z,84.74
2022-09-12T23:41:32.879Z,84.82
2022-09-12T23:44:01.411Z,84.87
2022-09-12T23:46:29.839Z,85.39
2022-09-12T23:48:58.092Z,85.64
2022-09-12T23:51:26.564Z,85.68
2022-09-12T23:53:54.769Z,85.72
2022-09-12T23:56:23.406Z,86.03
2022-09-12T23:58:51.617Z,86.15
